Time;durP1;ratioP1;P1;durP2;ratioP2;P2;SDS_P1;SDS_P2;PMS_P1;PMS_P2;Temp;Humidity;BMP_temperature;BMP_pressure;BME280_temperature;BME280_humidity;BME280_pressure;Samples;Min_cycle;Max_cycle;Signal;HPM_P1;HPM_P2
2023/07/31 00:00:55;;;;;;;23.67;10.07;;;;;;;15.38;100.00;100883.63;5009218;28;20216;-61
2023/07/31 00:03:20;;;;;;;19.58;10.18;;;;;;;15.38;100.00;100888.84;5009006;28;20021;-61
2023/07/31 00:05:45;;;;;;;22.27;10.05;;;;;;;15.33;100.00;100889.63;5008910;28;20052;-61
2023/07/31 00:08:11;;;;;;;21.38;8.95;;;;;;;15.34;100.00;100896.59;5008430;28;20045;-61
2023/07/31 00:10:36;;;;;;;19.63;8.65;;;;;;;15.33;100.00;100892.25;5008249;28;20026;-61
2023/07/31 00:13:01;;;;;;;20.23;8.48;;;;;;;15.35;100.00;100893.16;5008842;28;20121;-60
2023/07/31 00:15:27;;;;;;;20.15;8.13;;;;;;;15.30;100.00;100894.81;5008547;28;20038;-61
2023/07/31 00:17:52;;;;;;;23.20;9.15;;;;;;;15.32;100.00;100890.50;5008332;28;20477;-61
2023/07/31 00:20:17;;;;;;;17.90;8.32;;;;;;;15.32;100.00;100895.72;5008292;28;20017;-61
2023/07/31 00:22:43;;;;;;;18.08;7.60;;;;;;;15.30;100.00;100889.59;5008714;28;20029;-60
2023/07/31 00:25:08;;;;;;;17.30;7.50;;;;;;;15.30;100.00;100886.13;5008492;28;20482;-61
2023/07/31 00:27:33;;;;;;;19.70;7.70;;;;;;;15.28;100.00;100887.81;5008556;28;20033;-62
2023/07/31 00:29:58;;;;;;;21.17;7.80;;;;;;;15.30;100.00;100891.34;5008005;28;20381;-60
2023/07/31 00:32:24;;;;;;;16.88;8.27;;;;;;;15.29;100.00;100882.63;5008324;28;20109;-61
2023/07/31 00:34:49;;;;;;;19.10;7.72;;;;;;;15.30;100.00;100887.00;5008408;28;20026;-62
2023/07/31 00:37:15;;;;;;;16.02;8.43;;;;;;;15.29;100.00;100890.44;5008587;28;20438;-61
2023/07/31 00:39:41;;;;;;;13.63;7.20;;;;;;;15.26;100.00;100885.19;5008005;28;20442;-61
2023/07/31 00:42:06;;;;;;;18.10;7.63;;;;;;;15.24;100.00;100881.69;5008523;28;20022;-60
2023/07/31 00:44:32;;;;;;;20.67;8.38;;;;;;;15.24;100.00;100881.69;5008408;28;20022;-61
2023/07/31 00:46:59;;;;;;;18.77;7.47;;;;;;;15.27;100.00;100884.34;5008394;28;20034;-62
2023/07/31 00:49:25;;;;;;;16.05;7.35;;;;;;;15.25;100.00;100883.44;5008164;28;20025;-61
2023/07/31 00:51:50;;;;;;;16.80;8.77;;;;;;;15.25;100.00;100878.22;5008635;28;20021;-60
2023/07/31 00:54:15;;;;;;;20.55;7.38;;;;;;;15.27;100.00;100879.13;5008065;28;20387;-62
2023/07/31 00:56:42;;;;;;;19.27;6.60;;;;;;;15.28;100.00;100880.00;5007961;28;20109;-61
2023/07/31 00:59:07;;;;;;;23.90;7.88;;;;;;;15.27;100.00;100866.09;5008140;28;20076;-62
2023/07/31 01:01:33;;;;;;;16.30;7.28;;;;;;;15.29;100.00;100866.94;5007749;28;20026;-61
2023/07/31 01:03:58;;;;;;;16.67;6.30;;;;;;;15.28;100.00;100865.22;5007789;28;20386;-61
2023/07/31 01:06:29;;;;;;;16.50;6.45;;;;;;;15.29;100.00;100866.09;5007821;28;20110;-61
2023/07/31 01:09:00;;;;;;;;;;;;;;;15.26;100.00;100872.13;5008340;28;20370;-61
2023/07/31 01:11:28;;;;;;;17.45;6.00;;;;;;;15.27;100.00;100866.09;5007206;28;19909;-61
2023/07/31 01:13:55;;;;;;;17.00;6.30;;;;;;;15.21;100.00;100860.75;4993997;28;20057;-60
2023/07/31 01:16:20;;;;;;;16.85;6.18;;;;;;;15.18;100.00;100863.34;5007228;28;20041;-62
2023/07/31 01:18:45;;;;;;;13.57;6.40;;;;;;;15.17;100.00;100864.19;5007936;28;20034;-60
2023/07/31 01:21:25;;;;;;;14.40;6.55;;;;;;;15.18;100.00;100855.50;5007674;28;20026;-61
2023/07/31 01:24:26;;;;;;;19.10;6.50;;;;;;;15.18;100.00;100868.56;5008112;28;20044;-61
2023/07/31 01:27:04;;;;;;;14.13;5.80;;;;;;;15.19;100.00;100860.75;4992608;28;20045;-61
2023/07/31 01:29:56;;;;;;;13.52;5.85;;;;;;;15.16;100.00;100862.44;5007824;28;20033;-61
2023/07/31 01:32:23;;;;;;;14.55;6.00;;;;;;;15.15;100.00;100863.31;5007335;28;20444;-61
2023/07/31 01:34:48;;;;;;;15.75;5.95;;;;;;;15.12;100.00;100857.19;5007493;28;20029;-61
2023/07/31 01:37:14;;;;;;;20.02;7.10;;;;;;;15.13;100.00;100866.75;5007770;28;20383;-60
2023/07/31 01:39:39;;;;;;;20.33;6.07;;;;;;;15.15;100.00;100863.31;5005843;28;20025;-61
2023/07/31 01:42:04;;;;;;;16.17;6.47;;;;;;;15.11;100.00;100868.47;5007633;28;20057;-62
2023/07/31 01:44:30;;;;;;;11.07;5.15;;;;;;;15.09;100.00;100862.34;5007791;28;20021;-61
2023/07/31 01:46:56;;;;;;;13.60;5.55;;;;;;;15.12;100.00;100859.78;5007605;28;20022;-61
2023/07/31 01:49:21;;;;;;;14.40;5.57;;;;;;;15.12;100.00;100859.78;5007147;28;20458;-62
2023/07/31 01:51:46;;;;;;;15.15;6.18;;;;;;;15.16;100.00;100852.00;5007194;28;20064;-61
2023/07/31 01:54:11;;;;;;;11.13;5.53;;;;;;;15.12;100.00;100854.59;5006713;28;20025;-60
2023/07/31 01:56:36;;;;;;;14.93;6.40;;;;;;;15.08;100.00;100847.56;5007298;28;20061;-60
2023/07/31 01:59:02;;;;;;;13.52;6.38;;;;;;;15.07;100.00;100856.25;4993937;28;20079;-61
2023/07/31 02:01:27;;;;;;;14.95;6.32;;;;;;;15.08;100.00;100842.34;5007041;28;20504;-61
2023/07/31 02:03:52;;;;;;;17.10;6.40;;;;;;;15.07;100.00;100835.38;5006927;28;20242;-61
2023/07/31 02:06:18;;;;;;;14.23;6.32;;;;;;;15.07;100.00;100837.09;5007373;28;20026;-61
2023/07/31 02:08:43;;;;;;;12.70;5.60;;;;;;;15.08;100.00;100828.41;5007979;28;20390;-61
2023/07/31 02:11:08;;;;;;;14.45;6.57;;;;;;;15.05;100.00;100829.25;5011139;28;20445;-61
2023/07/31 02:13:34;;;;;;;17.65;6.65;;;;;;;15.00;100.00;100825.72;5010637;28;20470;-61
2023/07/31 02:15:59;;;;;;;15.57;6.40;;;;;;;14.97;100.00;100823.03;5011198;28;20377;-60
2023/07/31 02:18:24;;;;;;;16.67;6.80;;;;;;;14.95;100.00;100824.78;5010930;28;20018;-61
2023/07/31 02:20:50;;;;;;;14.70;6.38;;;;;;;14.95;100.00;100811.72;5011006;28;20399;-61
2023/07/31 02:23:16;;;;;;;19.50;6.38;;;;;;;14.95;100.00;100817.81;5010832;28;20018;-61
2023/07/31 02:25:42;;;;;;;21.38;7.03;;;;;;;14.95;100.00;100815.19;5010592;28;20072;-61
2023/07/31 02:28:07;;;;;;;12.90;5.75;;;;;;;14.95;100.00;100806.50;5010565;28;20466;-61
2023/07/31 02:30:32;;;;;;;15.18;6.10;;;;;;;14.93;100.00;100803.84;5010830;28;20018;-60
2023/07/31 02:32:58;;;;;;;18.73;7.20;;;;;;;14.91;100.00;100809.94;5010468;28;20080;-60
2023/07/31 02:35:23;;;;;;;11.80;6.28;;;;;;;14.91;100.00;100803.00;5011140;28;20499;-61
2023/07/31 02:37:48;;;;;;;15.20;6.63;;;;;;;14.92;100.00;100802.13;5010244;28;20477;-61
2023/07/31 02:40:13;;;;;;;13.05;6.28;;;;;;;14.89;100.00;100802.94;5010633;28;20033;-60
2023/07/31 02:42:39;;;;;;;14.43;6.45;;;;;;;14.89;100.00;100802.94;5010661;28;20022;-60
2023/07/31 02:45:05;;;;;;;12.70;7.15;;;;;;;14.88;100.00;100802.91;5010584;28;20045;-61
2023/07/31 02:47:30;;;;;;;13.27;5.90;;;;;;;14.89;100.00;100802.09;5010184;28;20030;-62
2023/07/31 02:49:55;;;;;;;16.30;7.07;;;;;;;14.89;100.00;100796.88;5010509;28;20037;-61
2023/07/31 02:52:21;;;;;;;13.65;6.13;;;;;;;14.89;100.00;100802.94;5010054;28;20166;-61
2023/07/31 02:54:46;;;;;;;13.02;5.93;;;;;;;14.89;100.00;100802.94;5009971;28;20036;-60
2023/07/31 02:57:11;;;;;;;15.73;6.13;;;;;;;14.91;100.00;100795.16;5009745;28;20053;-61
2023/07/31 02:59:37;;;;;;;15.55;7.22;;;;;;;14.89;100.00;100797.72;5010029;28;20036;-60
2023/07/31 03:02:02;;;;;;;16.65;6.60;;;;;;;14.86;100.00;100802.91;5010282;28;20389;-60
2023/07/31 03:04:28;;;;;;;16.17;6.85;;;;;;;14.87;100.00;100796.84;5009877;28;20101;-60
2023/07/31 03:06:53;;;;;;;13.32;6.45;;;;;;;14.88;100.00;100792.50;5009627;28;20029;-61
2023/07/31 03:09:18;;;;;;;14.10;6.60;;;;;;;14.87;100.00;100794.25;5009997;28;20314;-61
2023/07/31 03:11:43;;;;;;;15.30;5.88;;;;;;;14.88;100.00;100789.88;5009194;28;20122;-61
2023/07/31 03:14:09;;;;;;;15.48;5.88;;;;;;;14.88;100.00;100785.53;5010399;28;20368;-60
2023/07/31 03:16:34;;;;;;;13.52;6.18;;;;;;;14.89;100.00;100789.03;5009591;28;20034;-61
2023/07/31 03:18:59;;;;;;;16.20;6.25;;;;;;;14.91;100.00;100795.16;5009148;28;20045;-60
2023/07/31 03:21:24;;;;;;;18.08;5.93;;;;;;;14.90;100.00;100790.78;5008481;28;20025;-60
2023/07/31 03:23:50;;;;;;;19.45;6.97;;;;;;;14.88;100.00;100782.94;5010253;28;20022;-61
2023/07/31 03:26:15;;;;;;;16.08;5.80;;;;;;;14.86;100.00;100781.16;5009476;28;20026;-61
2023/07/31 03:28:40;;;;;;;14.60;6.32;;;;;;;14.84;100.00;100786.34;5010151;28;20034;-61
2023/07/31 03:31:06;;;;;;;16.05;6.13;;;;;;;14.84;100.00;100782.88;5008771;28;20025;-61
2023/07/31 03:33:31;;;;;;;13.95;6.50;;;;;;;14.85;100.00;100782.91;5009795;28;20076;-61
2023/07/31 03:35:56;;;;;;;19.02;7.03;;;;;;;14.83;100.00;100776.78;5009378;28;20030;-60
2023/07/31 03:38:22;;;;;;;16.35;6.97;;;;;;;14.86;100.00;100770.72;5009386;28;20601;-60
2023/07/31 03:40:47;;;;;;;15.23;5.93;;;;;;;14.88;100.00;100775.13;5008749;28;20034;-61
2023/07/31 03:43:13;;;;;;;11.73;5.40;;;;;;;14.91;100.00;100765.56;5009869;28;20025;-61
2023/07/31 03:45:38;;;;;;;13.02;5.68;;;;;;;14.92;100.00;100767.31;5009291;28;20026;-60
2023/07/31 03:48:05;;;;;;;14.85;5.57;;;;;;;14.91;100.00;100763.84;5009680;28;20026;-61
2023/07/31 03:50:30;;;;;;;16.85;6.47;;;;;;;14.94;100.00;100758.66;5009037;28;20033;-61
2023/07/31 03:52:56;;;;;;;14.90;5.78;;;;;;;14.97;100.00;100763.03;5008817;28;20397;-61
2023/07/31 03:55:24;;;;;;;15.75;6.82;;;;;;;14.96;100.00;100756.97;5009262;28;20030;-61
2023/07/31 03:57:49;;;;;;;18.45;6.57;;;;;;;14.96;100.00;100750.84;5009216;28;20054;-61
2023/07/31 04:00:14;;;;;;;16.55;6.40;;;;;;;14.98;100.00;100751.75;5009061;28;20052;-61
2023/07/31 04:02:40;;;;;;;13.20;5.65;;;;;;;14.99;100.00;100746.56;5008731;28;20034;-61
2023/07/31 04:05:06;;;;;;;11.32;5.70;;;;;;;15.02;100.00;100737.88;5008777;28;20372;-60
2023/07/31 04:07:31;;;;;;;16.20;6.38;;;;;;;15.03;100.00;100737.03;5007988;28;20033;-61
2023/07/31 04:09:57;;;;;;;12.43;6.28;;;;;;;15.06;100.00;100737.06;5007109;28;20029;-61
2023/07/31 04:12:22;;;;;;;15.60;5.80;;;;;;;15.07;100.00;100736.22;5007263;28;20030;-61
2023/07/31 04:14:47;;;;;;;15.38;5.50;;;;;;;15.09;100.00;100729.25;5006750;28;20401;-62
2023/07/31 04:17:13;;;;;;;13.98;5.90;;;;;;;15.10;100.00;100731.03;5007093;28;20032;-61
2023/07/31 04:19:38;;;;;;;12.15;6.10;;;;;;;15.10;100.00;100725.81;5007385;28;20285;-61
2023/07/31 04:22:03;;;;;;;15.57;5.82;;;;;;;15.13;100.00;100724.94;5008879;28;20061;-61
2023/07/31 04:24:29;;;;;;;16.25;5.80;;;;;;;15.15;100.00;100720.63;5007113;28;20088;-61
2023/07/31 04:26:54;;;;;;;16.67;5.75;;;;;;;15.18;100.00;100719.81;5008544;28;20391;-61
2023/07/31 04:29:19;;;;;;;14.63;5.85;;;;;;;15.21;100.00;100723.31;5008216;28;20032;-61
2023/07/31 04:31:45;;;;;;;16.30;6.05;;;;;;;15.23;100.00;100720.72;4995479;28;20030;-61
2023/07/31 04:34:11;;;;;;;14.88;5.80;;;;;;;15.24;100.00;100727.69;5008396;28;20105;-61
2023/07/31 04:36:36;;;;;;;12.43;4.95;;;;;;;15.26;100.00;100720.75;5008691;28;20413;-60
2023/07/31 04:39:02;;;;;;;13.98;6.72;;;;;;;15.28;100.00;100716.44;5007991;28;20026;-62
2023/07/31 04:41:27;;;;;;;15.50;5.97;;;;;;;15.30;100.00;100711.22;5008858;28;20038;-61
2023/07/31 04:43:53;;;;;;;12.82;6.03;;;;;;;15.31;100.00;100715.59;5008386;28;20770;-62
2023/07/31 04:46:18;;;;;;;13.90;5.05;;;;;;;15.33;100.00;100709.50;5008410;28;20782;-61
2023/07/31 04:48:44;;;;;;;12.95;5.68;;;;;;;15.34;100.00;100706.03;5008546;28;20034;-61
2023/07/31 04:51:10;;;;;;;12.98;5.03;;;;;;;15.36;100.00;100704.31;5007699;28;20033;-62
2023/07/31 04:53:36;;;;;;;9.38;5.10;;;;;;;15.36;100.00;100699.09;5008369;28;20118;-61
2023/07/31 04:56:02;;;;;;;12.38;5.93;;;;;;;15.39;100.00;100700.00;5008444;28;20033;-61
2023/07/31 04:58:27;;;;;;;14.18;5.95;;;;;;;15.40;100.00;100697.38;5007263;28;20561;-62
2023/07/31 05:00:52;;;;;;;12.18;6.40;;;;;;;15.43;100.00;100693.94;5008502;28;20548;-61
2023/07/31 05:03:18;;;;;;;16.85;6.70;;;;;;;15.44;100.00;100693.06;5008311;28;20057;-61
2023/07/31 05:05:43;;;;;;;13.48;6.57;;;;;;;15.46;100.00;100688.75;5008226;28;20030;-62
2023/07/31 05:08:08;;;;;;;11.40;6.00;;;;;;;15.45;100.00;100687.00;5007616;28;20473;-62
2023/07/31 05:10:34;;;;;;;13.15;6.53;;;;;;;15.46;100.00;100688.75;5008138;28;20363;-61
2023/07/31 05:12:59;;;;;;;12.40;5.72;;;;;;;15.50;100.00;100690.53;5008087;28;20100;-61
2023/07/31 05:15:24;;;;;;;11.77;6.28;;;;;;;15.50;100.00;100680.09;5007443;28;20024;-60
2023/07/31 05:17:50;;;;;;;12.52;6.40;;;;;;;15.50;100.00;100674.88;5008018;28;20053;-61
2023/07/31 05:20:15;;;;;;;11.20;6.00;;;;;;;15.46;100.00;100673.06;5008184;28;20017;-61
2023/07/31 05:22:40;;;;;;;12.60;6.60;;;;;;;15.45;100.00;100676.56;5007979;28;20026;-60
2023/07/31 05:25:06;;;;;;;12.00;6.47;;;;;;;15.43;100.00;100673.94;5007620;28;20671;-61
2023/07/31 05:27:32;;;;;;;18.38;6.63;;;;;;;15.42;100.00;100672.19;5007716;28;20030;-61
2023/07/31 05:29:58;;;;;;;16.75;7.07;;;;;;;15.40;100.00;100678.25;5007410;28;20070;-61
2023/07/31 05:32:23;;;;;;;11.05;6.93;;;;;;;15.40;100.00;100684.34;5007754;28;20104;-61
2023/07/31 05:34:51;;;;;;;11.98;6.43;;;;;;;15.40;100.00;100678.25;5007512;28;20029;-61
2023/07/31 05:37:16;;;;;;;15.63;7.15;;;;;;;15.41;100.00;100674.78;4995965;28;20026;-61
2023/07/31 05:39:42;;;;;;;11.13;6.32;;;;;;;15.41;100.00;100680.00;5007550;28;20030;-61
2023/07/31 05:42:07;;;;;;;12.82;7.15;;;;;;;15.40;100.00;100678.25;5006838;28;20022;-61
2023/07/31 05:44:32;;;;;;;12.20;5.82;;;;;;;15.40;100.00;100678.25;5009851;28;20359;-60
2023/07/31 05:46:57;;;;;;;12.95;6.03;;;;;;;15.38;100.00;100674.75;5011508;28;20065;-61
2023/07/31 05:49:23;;;;;;;9.13;6.13;;;;;;;15.38;100.00;100669.53;5010704;28;20025;-61
2023/07/31 05:51:49;;;;;;;9.07;5.53;;;;;;;15.36;100.00;100661.69;5005075;28;20436;-61
2023/07/31 05:54:14;;;;;;;10.48;5.10;;;;;;;15.35;100.00;100647.75;4998811;28;20026;-62
2023/07/31 05:56:40;;;;;;;7.05;4.93;;;;;;;15.31;100.00;100643.34;5001982;28;20073;-61
2023/07/31 05:59:05;;;;;;;8.10;4.88;;;;;;;15.24;100.00;100652.88;4997903;28;20519;-60
2023/07/31 06:01:30;;;;;;;8.57;4.82;;;;;;;15.24;100.00;100646.78;5001001;28;20048;-62
2023/07/31 06:03:55;;;;;;;8.50;4.45;;;;;;;15.25;100.00;100653.75;5007136;28;20036;-61
2023/07/31 06:06:21;;;;;;;5.45;4.53;;;;;;;15.23;100.00;100645.03;5004346;28;20655;-61
2023/07/31 06:08:46;;;;;;;4.85;3.83;;;;;;;15.25;100.00;100648.53;5007316;28;20021;-61
2023/07/31 06:11:11;;;;;;;6.63;4.28;;;;;;;15.27;100.00;100641.59;5004404;28;20060;-61
2023/07/31 06:13:36;;;;;;;9.60;4.70;;;;;;;15.25;100.00;100646.78;4992278;28;20477;-62
2023/07/31 06:16:05;;;;;;;6.45;4.25;;;;;;;15.29;100.00;100650.28;4992149;28;20380;-61
2023/07/31 06:18:31;;;;;;;8.00;4.32;;;;;;;15.31;100.00;100642.50;4991747;28;20037;-62
2023/07/31 06:20:57;;;;;;;6.85;4.43;;;;;;;15.27;100.00;100633.78;4993815;28;20034;-61
2023/07/31 06:23:22;;;;;;;8.13;4.57;;;;;;;15.29;100.00;100633.78;5001492;28;20026;-61
2023/07/31 06:25:47;;;;;;;7.30;4.28;;;;;;;15.29;100.00;100634.63;5001464;28;20026;-61
2023/07/31 06:28:12;;;;;;;5.65;3.92;;;;;;;15.25;100.00;100633.72;5000442;28;20312;-61
2023/07/31 06:30:38;;;;;;;5.07;4.00;;;;;;;15.31;100.00;100634.66;4992150;28;20045;-62
2023/07/31 06:33:03;;;;;;;8.35;4.32;;;;;;;15.34;100.00;100627.72;4994183;28;20402;-60
2023/07/31 06:35:28;;;;;;;7.30;4.97;;;;;;;15.35;100.00;100626.88;4998812;28;20465;-61
2023/07/31 06:37:53;;;;;;;5.70;4.22;;;;;;;15.35;100.00;100628.59;5001893;28;20019;-60
2023/07/31 06:40:19;;;;;;;6.93;4.63;;;;;;;15.34;100.00;100627.72;5002680;28;20061;-63
2023/07/31 06:42:44;;;;;;;6.13;4.97;;;;;;;15.37;100.00;100621.66;4993075;28;20046;-62
2023/07/31 06:45:10;;;;;;;6.57;4.90;;;;;;;15.35;100.00;100616.44;4998055;28;20026;-62
2023/07/31 06:47:35;;;;;;;5.82;5.07;;;;;;;15.38;100.00;100612.94;5001982;28;20041;-60
2023/07/31 06:50:00;;;;;;;7.85;5.10;;;;;;;15.42;100.00;100616.47;4999389;28;20431;-62
2023/07/31 06:52:26;;;;;;;5.90;4.60;;;;;;;15.39;100.00;100608.63;5002436;28;20561;-61
2023/07/31 06:55:17;;;;;;;9.45;5.07;;;;;;;15.37;100.00;100608.59;5007453;28;20030;-61
2023/07/31 06:57:43;;;;;;;5.97;4.90;;;;;;;15.39;100.00;100601.66;5004905;28;20376;-62
2023/07/31 07:00:08;;;;;;;6.72;4.60;;;;;;;15.35;100.00;100605.09;5003736;28;20040;-60
2023/07/31 07:02:34;;;;;;;5.97;5.03;;;;;;;15.34;100.00;100616.41;5001664;28;20034;-61
2023/07/31 07:04:59;;;;;;;7.15;5.18;;;;;;;15.37;100.00;100611.22;5007425;28;20608;-62
2023/07/31 07:07:24;;;;;;;5.60;5.05;;;;;;;15.40;100.00;100610.38;5000269;28;20514;-61
2023/07/31 07:09:49;;;;;;;5.88;5.10;;;;;;;15.40;100.00;100610.38;4997712;28;20032;-62
2023/07/31 07:12:15;;;;;;;7.55;5.40;;;;;;;15.45;100.00;100598.22;4996454;28;20066;-61
2023/07/31 07:14:40;;;;;;;5.25;4.78;;;;;;;15.49;100.00;100594.75;4992701;28;20590;-63
2023/07/31 07:17:06;;;;;;;7.30;5.57;;;;;;;15.53;100.00;100583.50;5004964;28;20025;-62
2023/07/31 07:19:31;;;;;;;6.05;4.88;;;;;;;15.52;100.00;100593.94;5001973;28;20355;-62
2023/07/31 07:21:56;;;;;;;6.55;5.15;;;;;;;15.47;100.00;100597.38;4993653;28;20060;-61
2023/07/31 07:24:22;;;;;;;5.43;4.80;;;;;;;15.53;100.00;100590.44;5003049;28;20037;-61
2023/07/31 07:26:47;;;;;;;7.00;4.78;;;;;;;15.58;100.00;100589.63;4995467;28;20117;-61
2023/07/31 07:29:12;;;;;;;6.22;4.40;;;;;;;15.55;100.00;100578.28;4995346;28;20053;-61
2023/07/31 07:31:37;;;;;;;6.15;5.03;;;;;;;15.57;100.00;100582.66;4993460;28;20037;-62
2023/07/31 07:34:03;;;;;;;5.57;4.80;;;;;;;15.54;100.00;100576.53;4994389;28;20443;-62
2023/07/31 07:36:28;;;;;;;8.15;5.05;;;;;;;15.57;100.00;100576.56;5001387;28;20026;-61
2023/07/31 07:38:54;;;;;;;6.15;5.53;;;;;;;15.58;100.00;100587.00;5007291;28;20422;-61
2023/07/31 07:41:19;;;;;;;6.20;5.45;;;;;;;15.58;100.00;100594.84;5003744;28;20053;-62
2023/07/31 07:43:44;;;;;;;7.28;5.80;;;;;;;15.59;100.00;100593.13;5002539;28;20025;-63
2023/07/31 07:46:09;;;;;;;8.30;5.70;;;;;;;15.61;100.00;100589.63;5009349;28;20588;-61
2023/07/31 07:48:35;;;;;;;8.57;5.97;;;;;;;15.57;100.00;100587.88;5008995;28;20052;-61
2023/07/31 07:51:00;;;;;;;7.47;5.90;;;;;;;15.61;100.00;100584.41;5008974;28;20497;-62
2023/07/31 07:53:25;;;;;;;8.23;5.85;;;;;;;15.66;100.00;100581.84;5009211;28;20025;-61
2023/07/31 07:55:50;;;;;;;8.38;6.95;;;;;;;15.68;100.00;100579.25;5009312;28;20022;-62
2023/07/31 07:58:16;;;;;;;8.85;6.55;;;;;;;15.71;100.00;100587.97;5009003;28;20038;-61
2023/07/31 08:00:41;;;;;;;6.80;6.03;;;;;;;15.77;100.00;100589.75;5009023;28;20134;-61
2023/07/31 08:03:06;;;;;;;9.02;6.60;;;;;;;15.71;100.00;100577.53;5000809;28;20024;-62
2023/07/31 08:05:34;;;;;;;8.57;6.20;;;;;;;15.74;100.00;100579.28;5009035;28;20172;-61
2023/07/31 08:07:59;;;;;;;6.35;5.75;;;;;;;15.74;100.00;100579.28;5002215;28;20042;-61
2023/07/31 08:10:24;;;;;;;7.22;5.88;;;;;;;15.66;100.00;100578.34;5006663;28;20040;-61
2023/07/31 08:12:50;;;;;;;8.27;6.03;;;;;;;15.66;100.00;100587.06;5008317;28;20033;-61
2023/07/31 08:15:15;;;;;;;10.40;6.88;;;;;;;15.65;100.00;100574.00;5008801;28;20026;-61
2023/07/31 08:17:40;;;;;;;9.07;6.90;;;;;;;15.68;100.00;100579.25;5005569;28;20466;-61
2023/07/31 08:20:06;;;;;;;10.13;7.07;;;;;;;15.75;100.00;100569.69;5006864;28;20506;-62
2023/07/31 08:22:32;;;;;;;6.93;6.20;;;;;;;15.69;100.00;100571.41;4997935;28;20538;-62
2023/07/31 08:24:57;;;;;;;8.63;6.60;;;;;;;15.73;100.00;100572.31;5004513;28;20207;-61
2023/07/31 08:27:22;;;;;;;8.45;6.75;;;;;;;15.73;100.00;100573.19;4993348;28;20418;-61
2023/07/31 08:29:47;;;;;;;9.52;6.93;;;;;;;15.74;100.00;100571.44;5005715;28;20018;-61
2023/07/31 08:32:13;;;;;;;7.05;6.35;;;;;;;15.66;100.00;100584.47;4999080;28;20444;-60
2023/07/31 08:34:38;;;;;;;8.43;6.00;;;;;;;15.69;100.00;100576.63;4999047;28;20034;-61
2023/07/31 08:37:03;;;;;;;8.50;7.10;;;;;;;15.65;100.00;100579.22;4999166;28;20040;-63
2023/07/31 08:39:29;;;;;;;8.07;6.22;;;;;;;15.67;100.00;100572.28;4999226;28;20222;-61
2023/07/31 08:41:59;;;;;;;9.23;7.32;;;;;;;15.65;100.00;100579.22;5004913;28;20613;-62
2023/07/31 08:44:24;;;;;;;8.32;6.82;;;;;;;15.67;100.00;100582.72;5001958;28;20108;-62
2023/07/31 08:46:50;;;;;;;7.22;6.50;;;;;;;15.66;100.00;100581.84;5001515;28;20105;-61
2023/07/31 08:49:17;;;;;;;9.63;6.72;;;;;;;15.66;100.00;100570.53;5007910;28;20053;-61
2023/07/31 08:51:44;;;;;;;10.48;8.13;;;;;;;15.66;100.00;100566.19;5008237;28;20081;-61
2023/07/31 08:54:09;;;;;;;12.15;7.97;;;;;;;15.65;100.00;100574.84;4997574;28;20021;-61
2023/07/31 08:56:36;;;;;;;8.35;6.85;;;;;;;15.65;100.00;100579.22;5001984;28;20026;-62
2023/07/31 08:59:04;;;;;;;8.00;7.10;;;;;;;15.68;100.00;100571.41;5005670;28;20042;-61
2023/07/31 09:01:30;;;;;;;9.30;7.07;;;;;;;15.70;100.00;100574.91;4994148;28;20053;-61
2023/07/31 09:03:57;;;;;;;11.00;7.70;;;;;;;15.72;100.00;100571.44;5005431;28;20477;-62
2023/07/31 09:06:27;;;;;;;10.90;6.82;;;;;;;15.73;100.00;100577.53;4999650;28;20508;-62
2023/07/31 09:08:53;;;;;;;9.37;7.23;;;;;;;15.76;100.00;100574.94;5002772;28;20030;-61
2023/07/31 09:11:18;;;;;;;11.23;7.50;;;;;;;15.80;100.00;100568.88;4995147;28;20026;-61
2023/07/31 09:13:46;;;;;;;10.30;6.70;;;;;;;15.80;100.00;100571.47;4990149;28;20028;-61
2023/07/31 09:16:11;;;;;;;8.55;7.43;;;;;;;15.82;100.00;100574.97;5000730;28;20026;-61
2023/07/31 09:18:56;;;;;;;9.65;7.53;;;;;;;15.87;100.00;100568.88;4995343;28;20130;-61
2023/07/31 09:21:22;;;;;;;9.50;8.05;;;;;;;15.85;100.00;100566.28;4994989;28;20544;-61
2023/07/31 09:23:48;;;;;;;13.32;7.60;;;;;;;15.90;100.00;100567.16;5007623;28;20026;-61
2023/07/31 09:26:33;;;;;;;12.63;8.15;;;;;;;15.93;100.00;100553.25;4998628;28;20033;-61
2023/07/31 09:29:00;;;;;;;8.80;6.90;;;;;;;15.95;100.00;100555.03;5001894;28;20113;-61
2023/07/31 09:31:40;;;;;;;11.40;7.25;;;;;;;15.93;100.00;100548.91;5001036;28;20080;-61
2023/07/31 09:34:05;;;;;;;11.60;7.43;;;;;;;15.97;100.00;100555.88;4999695;28;20038;-62
2023/07/31 09:36:31;;;;;;;9.80;7.60;;;;;;;15.99;100.00;100548.09;5007076;28;20057;-62
2023/07/31 09:39:02;;;;;;;13.32;8.00;;;;;;;16.04;100.00;100548.13;5001078;28;20112;-61
2023/07/31 09:41:28;;;;;;;11.90;7.63;;;;;;;16.04;100.00;100546.41;5004267;28;20029;-62
2023/07/31 09:43:54;;;;;;;9.05;7.85;;;;;;;16.06;100.00;100549.00;5007603;28;20033;-61
2023/07/31 09:46:20;;;;;;;14.70;7.97;;;;;;;16.11;100.00;100543.78;5006046;28;20331;-61
2023/07/31 09:48:46;;;;;;;10.77;7.07;;;;;;;16.12;100.00;100550.78;5003294;28;20141;-62
2023/07/31 09:51:11;;;;;;;9.02;6.93;;;;;;;16.15;100.00;100550.78;5005688;28;20096;-61
2023/07/31 09:53:36;;;;;;;10.75;7.05;;;;;;;16.18;100.00;100550.78;5002713;28;20023;-60
2023/07/31 09:56:02;;;;;;;8.75;7.03;;;;;;;16.18;100.00;100546.44;5004600;28;20030;-61
2023/07/31 09:58:29;;;;;;;12.73;6.75;;;;;;;16.19;100.00;100542.97;5003901;28;20421;-62
2023/07/31 10:00:57;;;;;;;8.23;6.00;;;;;;;16.22;100.00;100539.50;5007733;28;20021;-61
2023/07/31 10:03:22;;;;;;;10.25;6.28;;;;;;;16.23;100.00;100545.56;5006864;28;20057;-61
2023/07/31 10:05:50;;;;;;;10.38;6.55;;;;;;;16.19;100.00;100545.56;5007630;28;20547;-61
2023/07/31 10:08:18;;;;;;;7.10;5.78;;;;;;;16.25;100.00;100530.78;5007343;28;20029;-62
2023/07/31 10:10:45;;;;;;;6.55;5.85;;;;;;;16.28;100.00;100538.66;5006693;28;20026;-61
2023/07/31 10:13:11;;;;;;;8.43;6.18;;;;;;;16.32;100.00;100536.03;5000900;28;20062;-61
2023/07/31 10:15:37;;;;;;;8.57;5.70;;;;;;;16.36;100.00;100534.31;5005827;28;20057;-61
2023/07/31 10:18:02;;;;;;;12.73;6.50;;;;;;;16.37;100.00;100532.56;5004299;28;20018;-61
2023/07/31 10:20:28;;;;;;;8.75;5.90;;;;;;;16.45;100.00;100530.84;5004984;28;20101;-61
2023/07/31 10:22:56;;;;;;;7.60;5.32;;;;;;;16.50;100.00;100528.22;5005132;28;20033;-61
2023/07/31 10:25:22;;;;;;;6.80;6.10;;;;;;;16.65;100.00;100532.63;5006877;28;20501;-61
2023/07/31 10:27:48;;;;;;;10.43;6.47;;;;;;;16.76;100.00;100530.03;5006905;28;20133;-61
2023/07/31 10:30:20;;;;;;;8.57;5.57;;;;;;;16.80;100.00;100532.66;5008856;28;20668;-61
2023/07/31 10:32:48;;;;;;;7.95;5.38;;;;;;;16.87;100.00;100528.31;5011017;28;20236;-61
2023/07/31 10:35:14;;;;;;;7.15;4.32;;;;;;;16.86;100.00;100530.91;5009506;28;20049;-61
2023/07/31 10:37:44;;;;;;;6.63;4.60;;;;;;;16.92;100.00;100536.16;5010860;28;20462;-60
2023/07/31 10:40:15;;;;;;;7.78;4.35;;;;;;;16.92;100.00;100541.38;5010281;28;20425;-61
2023/07/31 10:42:50;;;;;;;8.13;4.50;;;;;;;16.96;100.00;100532.69;5010381;28;20081;-61
2023/07/31 10:45:33;;;;;;;5.72;4.90;;;;;;;17.00;100.00;100534.41;5010581;28;20100;-62
2023/07/31 10:48:15;;;;;;;7.07;4.22;;;;;;;17.01;100.00;100537.91;5010546;28;20033;-61
2023/07/31 10:50:49;;;;;;;8.75;4.45;;;;;;;17.04;100.00;100540.50;4995796;28;20030;-61
2023/07/31 10:53:30;;;;;;;5.70;4.40;;;;;;;16.97;100.00;100544.88;5001830;28;20037;-62
2023/07/31 10:56:04;;;;;;;;;;;;;;;17.01;100.00;100541.41;5009637;28;20026;-61
2023/07/31 10:58:32;;;;;;;6.07;4.20;;;;;;;17.04;100.00;100535.28;5010120;28;19917;-61
2023/07/31 11:01:00;;;;;;;6.43;4.45;;;;;;;17.02;100.00;100532.66;5010541;28;20057;-61
2023/07/31 11:03:40;;;;;;;6.28;4.47;;;;;;;17.03;100.00;100526.56;5005387;28;20037;-62
2023/07/31 11:06:05;;;;;;;7.13;4.00;;;;;;;17.07;100.00;100518.72;5004987;28;20386;-62
2023/07/31 11:08:34;;;;;;;7.60;4.13;;;;;;;17.13;100.00;100526.59;5008646;28;20477;-61